Sitges, Spain
Current Conditions -  °F | °C
As of 3:30 PM on Thursday 29 Jan 2015 (Local Time) from LEBL Reporting Station
Few Clouds Few Clouds  
Wind Chill: 14°   Ceiling: Unl
Heat Index: 14°   Visibility: 6mi
Dew Point:   Wind: 25mph
Humidity: 59%   Direction: 240°WSW
Pressure: 29.59"   Gusts: NA
Location:  41.24°N, 1.81°E
Report Text: LEBL 291430Z 24022KT 9999 FEW035 14/06 Q1002 NOSIG
Loading
Personal Weather Stations






























Interactive Weather Map New forecast layout! Learn more

10-Day Weather Forecast

Advertisements
Track Severe Weather on mobile